sensor_id;sensor_type;location;lat;lon;timestamp;temperature;humidity
18648;DHT22;9453;50.294;18.644;2024-02-04T05:02:36;6.90;99.90
18648;DHT22;9453;50.294;18.644;2024-02-04T05:05:04;6.90;99.90
18648;DHT22;9453;50.294;18.644;2024-02-04T05:07:31;6.90;99.90
18648;DHT22;9453;50.294;18.644;2024-02-04T05:09:58;6.90;99.90
18648;DHT22;9453;50.294;18.644;2024-02-04T05:12:25;6.80;99.90
18648;DHT22;9453;50.294;18.644;2024-02-04T05:14:52;6.80;99.90
18648;DHT22;9453;50.294;18.644;2024-02-04T05:17:20;6.80;99.90
18648;DHT22;9453;50.294;18.644;2024-02-04T05:19:48;6.80;99.90
18648;DHT22;9453;50.294;18.644;2024-02-04T05:22:15;6.80;99.90
18648;DHT22;9453;50.294;18.644;2024-02-04T05:24:42;6.70;99.90
18648;DHT22;9453;50.294;18.644;2024-02-04T05:27:09;6.80;99.90
18648;DHT22;9453;50.294;18.644;2024-02-04T05:29:36;6.70;99.90
18648;DHT22;9453;50.294;18.644;2024-02-04T05:32:03;6.70;99.90
18648;DHT22;9453;50.294;18.644;2024-02-04T05:34:30;6.60;99.90
18648;DHT22;9453;50.294;18.644;2024-02-04T05:37:01;6.60;99.90
18648;DHT22;9453;50.294;18.644;2024-02-04T05:39:28;6.50;99.90
18648;DHT22;9453;50.294;18.644;2024-02-04T05:41:55;6.50;99.90
18648;DHT22;9453;50.294;18.644;2024-02-04T05:44:22;6.40;99.90
18648;DHT22;9453;50.294;18.644;2024-02-04T05:46:49;6.20;99.90
18648;DHT22;9453;50.294;18.644;2024-02-04T05:49:16;6.10;99.90
18648;DHT22;9453;50.294;18.644;2024-02-04T05:51:43;5.90;99.90
18648;DHT22;9453;50.294;18.644;2024-02-04T05:54:12;5.90;99.90
18648;DHT22;9453;50.294;18.644;2024-02-04T05:56:39;5.90;99.90
18648;DHT22;9453;50.294;18.644;2024-02-04T05:59:06;5.90;99.90
18648;DHT22;9453;50.294;18.644;2024-02-04T06:01:33;6.00;99.90
18648;DHT22;9453;50.294;18.644;2024-02-04T06:04:00;6.10;99.90
18648;DHT22;9453;50.294;18.644;2024-02-04T06:06:27;6.30;99.90
18648;DHT22;9453;50.294;18.644;2024-02-04T06:08:54;6.30;99.90
18648;DHT22;9453;50.294;18.644;2024-02-04T06:11:23;6.30;99.90
18648;DHT22;9453;50.294;18.644;2024-02-04T06:13:49;6.40;99.90
18648;DHT22;9453;50.294;18.644;2024-02-04T06:16:16;6.50;99.90
18648;DHT22;9453;50.294;18.644;2024-02-04T06:18:43;6.60;99.90
18648;DHT22;9453;50.294;18.644;2024-02-04T06:21:10;6.70;99.90
18648;DHT22;9453;50.294;18.644;2024-02-04T06:23:38;6.70;99.90
18648;DHT22;9453;50.294;18.644;2024-02-04T06:26:05;6.80;99.90
18648;DHT22;9453;50.294;18.644;2024-02-04T06:28:33;6.80;99.90
18648;DHT22;9453;50.294;18.644;2024-02-04T06:31:00;6.80;99.90
18648;DHT22;9453;50.294;18.644;2024-02-04T06:33:28;6.90;99.90
18648;DHT22;9453;50.294;18.644;2024-02-04T06:35:54;6.90;99.90
18648;DHT22;9453;50.294;18.644;2024-02-04T06:38:21;7.00;99.90
18648;DHT22;9453;50.294;18.644;2024-02-04T06:40:48;7.00;99.90
18648;DHT22;9453;50.294;18.644;2024-02-04T06:43:15;7.00;99.90
18648;DHT22;9453;50.294;18.644;2024-02-04T06:45:43;7.00;99.90
18648;DHT22;9453;50.294;18.644;2024-02-04T06:48:12;7.10;99.90
18648;DHT22;9453;50.294;18.644;2024-02-04T06:50:39;7.10;99.90
18648;DHT22;9453;50.294;18.644;2024-02-04T06:53:06;7.10;99.90
18648;DHT22;9453;50.294;18.644;2024-02-04T06:55:33;7.10;99.90
18648;DHT22;9453;50.294;18.644;2024-02-04T06:58:00;7.10;99.90
18648;DHT22;9453;50.294;18.644;2024-02-04T07:00:26;7.10;99.90
18648;DHT22;9453;50.294;18.644;2024-02-04T07:02:55;7.20;99.90
18648;DHT22;9453;50.294;18.644;2024-02-04T07:05:22;7.20;99.90
18648;DHT22;9453;50.294;18.644;2024-02-04T07:07:49;7.20;99.90
18648;DHT22;9453;50.294;18.644;2024-02-04T07:10:16;7.20;99.90
18648;DHT22;9453;50.294;18.644;2024-02-04T07:12:44;7.10;99.90
18648;DHT22;9453;50.294;18.644;2024-02-04T07:15:11;7.10;99.90
18648;DHT22;9453;50.294;18.644;2024-02-04T07:17:38;7.10;99.90
18648;DHT22;9453;50.294;18.644;2024-02-04T07:20:07;7.00;99.90
18648;DHT22;9453;50.294;18.644;2024-02-04T07:22:34;6.90;99.90
18648;DHT22;9453;50.294;18.644;2024-02-04T07:25:02;6.90;99.90
18648;DHT22;9453;50.294;18.644;2024-02-04T07:27:29;6.80;99.90
18648;DHT22;9453;50.294;18.644;2024-02-04T07:29:56;6.80;99.90
18648;DHT22;9453;50.294;18.644;2024-02-04T07:32:23;6.80;99.90
18648;DHT22;9453;50.294;18.644;2024-02-04T07:34:50;6.70;99.90
18648;DHT22;9453;50.294;18.644;2024-02-04T07:37:19;6.70;99.90
18648;DHT22;9453;50.294;18.644;2024-02-04T07:39:45;6.70;99.90
18648;DHT22;9453;50.294;18.644;2024-02-04T07:42:12;6.70;99.90
18648;DHT22;9453;50.294;18.644;2024-02-04T07:44:39;6.70;99.90
18648;DHT22;9453;50.294;18.644;2024-02-04T07:47:06;6.70;99.90
18648;DHT22;9453;50.294;18.644;2024-02-04T07:49:33;6.80;99.90
18648;DHT22;9453;50.294;18.644;2024-02-04T07:52:00;6.80;99.90
18648;DHT22;9453;50.294;18.644;2024-02-04T07:54:28;6.90;99.90
18648;DHT22;9453;50.294;18.644;2024-02-04T07:56:55;6.90;99.90
18648;DHT22;9453;50.294;18.644;2024-02-04T07:59:22;6.90;99.90
18648;DHT22;9453;50.294;18.644;2024-02-04T08:01:49;6.90;99.90
18648;DHT22;9453;50.294;18.644;2024-02-04T08:04:16;6.90;99.90
18648;DHT22;9453;50.294;18.644;2024-02-04T08:06:43;6.80;99.90
18648;DHT22;9453;50.294;18.644;2024-02-04T08:09:10;7.00;99.90
18648;DHT22;9453;50.294;18.644;2024-02-04T08:11:38;7.00;99.90
18648;DHT22;9453;50.294;18.644;2024-02-04T08:14:05;7.10;99.90
18648;DHT22;9453;50.294;18.644;2024-02-04T08:16:32;7.20;99.90
18648;DHT22;9453;50.294;18.644;2024-02-04T08:18:59;7.20;99.90
18648;DHT22;9453;50.294;18.644;2024-02-04T08:21:26;7.30;99.90
18648;DHT22;9453;50.294;18.644;2024-02-04T08:23:53;7.40;99.90
18648;DHT22;9453;50.294;18.644;2024-02-04T08:26:20;7.50;99.90
18648;DHT22;9453;50.294;18.644;2024-02-04T08:28:49;7.50;99.90
18648;DHT22;9453;50.294;18.644;2024-02-04T08:31:16;7.60;99.90
18648;DHT22;9453;50.294;18.644;2024-02-04T08:33:43;7.60;99.90
18648;DHT22;9453;50.294;18.644;2024-02-04T08:36:10;7.60;99.90
18648;DHT22;9453;50.294;18.644;2024-02-04T08:38:37;7.60;99.90
18648;DHT22;9453;50.294;18.644;2024-02-04T08:41:05;7.50;99.90
18648;DHT22;9453;50.294;18.644;2024-02-04T08:43:31;7.60;99.90
18648;DHT22;9453;50.294;18.644;2024-02-04T08:46:00;7.70;99.90
18648;DHT22;9453;50.294;18.644;2024-02-04T08:48:27;7.80;99.90
18648;DHT22;9453;50.294;18.644;2024-02-04T08:50:54;8.00;99.90
18648;DHT22;9453;50.294;18.644;2024-02-04T08:53:21;8.20;99.90
18648;DHT22;9453;50.294;18.644;2024-02-04T08:55:49;8.30;99.90
18648;DHT22;9453;50.294;18.644;2024-02-04T08:58:16;8.50;99.90
18648;DHT22;9453;50.294;18.644;2024-02-04T09:00:43;8.40;99.90
18648;DHT22;9453;50.294;18.644;2024-02-04T09:03:11;8.50;99.90
18648;DHT22;9453;50.294;18.644;2024-02-04T09:05:39;8.50;99.90
18648;DHT22;9453;50.294;18.644;2024-02-04T09:08:06;8.50;99.90
18648;DHT22;9453;50.294;18.644;2024-02-04T09:10:33;8.50;99.90
18648;DHT22;9453;50.294;18.644;2024-02-04T09:13:00;8.50;99.90
18648;DHT22;9453;50.294;18.644;2024-02-04T09:15:27;8.40;99.90
18648;DHT22;9453;50.294;18.644;2024-02-04T09:17:54;8.40;99.90
18648;DHT22;9453;50.294;18.644;2024-02-04T09:20:22;8.30;99.90
18648;DHT22;9453;50.294;18.644;2024-02-04T09:22:49;8.20;99.90
18648;DHT22;9453;50.294;18.644;2024-02-04T09:25:16;8.30;99.90
18648;DHT22;9453;50.294;18.644;2024-02-04T09:27:43;8.10;99.90
18648;DHT22;9453;50.294;18.644;2024-02-04T09:30:11;8.10;99.90
18648;DHT22;9453;50.294;18.644;2024-02-04T09:32:38;8.10;99.90
18648;DHT22;9453;50.294;18.644;2024-02-04T09:35:06;8.30;99.90
18648;DHT22;9453;50.294;18.644;2024-02-04T09:37:36;8.40;99.90
18648;DHT22;9453;50.294;18.644;2024-02-04T09:40:04;8.50;99.90
18648;DHT22;9453;50.294;18.644;2024-02-04T09:42:31;8.60;99.90
18648;DHT22;9453;50.294;18.644;2024-02-04T09:44:58;8.70;99.90
18648;DHT22;9453;50.294;18.644;2024-02-04T09:47:26;8.80;99.90
18648;DHT22;9453;50.294;18.644;2024-02-04T09:49:54;8.90;99.90
18648;DHT22;9453;50.294;18.644;2024-02-04T09:52:27;9.00;99.90
18648;DHT22;9453;50.294;18.644;2024-02-04T09:54:59;9.20;99.90
18648;DHT22;9453;50.294;18.644;2024-02-04T09:57:28;9.40;99.90
18648;DHT22;9453;50.294;18.644;2024-02-04T09:59:55;9.40;99.90
18648;DHT22;9453;50.294;18.644;2024-02-04T10:02:23;9.40;99.90
18648;DHT22;9453;50.294;18.644;2024-02-04T10:04:50;9.40;99.90
18648;DHT22;9453;50.294;18.644;2024-02-04T10:07:17;9.30;99.90
18648;DHT22;9453;50.294;18.644;2024-02-04T10:09:45;9.20;99.90
18648;DHT22;9453;50.294;18.644;2024-02-04T10:12:13;9.10;99.90
18648;DHT22;9453;50.294;18.644;2024-02-04T10:14:40;9.10;99.90
18648;DHT22;9453;50.294;18.644;2024-02-04T10:17:07;9.20;99.90
18648;DHT22;9453;50.294;18.644;2024-02-04T10:19:34;9.20;99.90
18648;DHT22;9453;50.294;18.644;2024-02-04T10:22:01;9.20;99.90
18648;DHT22;9453;50.294;18.644;2024-02-04T10:24:29;9.20;99.90
18648;DHT22;9453;50.294;18.644;2024-02-04T10:26:57;9.30;99.90
18648;DHT22;9453;50.294;18.644;2024-02-04T10:29:25;9.30;99.90
18648;DHT22;9453;50.294;18.644;2024-02-04T10:31:56;9.30;99.90
18648;DHT22;9453;50.294;18.644;2024-02-04T10:34:23;9.20;99.90
18648;DHT22;9453;50.294;18.644;2024-02-04T10:36:52;9.30;99.90
18648;DHT22;9453;50.294;18.644;2024-02-04T10:39:19;9.40;99.90
18648;DHT22;9453;50.294;18.644;2024-02-04T10:41:50;9.60;99.90
18648;DHT22;9453;50.294;18.644;2024-02-04T10:44:21;9.70;99.90
18648;DHT22;9453;50.294;18.644;2024-02-04T10:46:51;9.70;99.90
18648;DHT22;9453;50.294;18.644;2024-02-04T10:49:19;9.70;99.90
18648;DHT22;9453;50.294;18.644;2024-02-04T10:51:46;9.70;99.90
18648;DHT22;9453;50.294;18.644;2024-02-04T10:54:15;9.90;99.90
18648;DHT22;9453;50.294;18.644;2024-02-04T10:56:44;9.90;99.90
18648;DHT22;9453;50.294;18.644;2024-02-04T10:59:12;9.80;99.90
18648;DHT22;9453;50.294;18.644;2024-02-04T11:01:44;9.90;99.90
18648;DHT22;9453;50.294;18.644;2024-02-04T11:04:16;9.80;99.90
18648;DHT22;9453;50.294;18.644;2024-02-04T11:06:44;9.90;99.90
18648;DHT22;9453;50.294;18.644;2024-02-04T11:09:12;10.00;99.90
18648;DHT22;9453;50.294;18.644;2024-02-04T11:11:40;10.00;99.90
18648;DHT22;9453;50.294;18.644;2024-02-04T11:14:11;9.90;99.90
18648;DHT22;9453;50.294;18.644;2024-02-04T11:16:52;10.00;99.90
18648;DHT22;9453;50.294;18.644;2024-02-04T11:19:35;10.00;99.90
18648;DHT22;9453;50.294;18.644;2024-02-04T11:25:25;10.10;99.90
18648;DHT22;9453;50.294;18.644;2024-02-04T11:27:57;10.20;99.90
18648;DHT22;9453;50.294;18.644;2024-02-04T11:30:24;10.30;99.90
18648;DHT22;9453;50.294;18.644;2024-02-04T11:32:51;10.40;99.90
18648;DHT22;9453;50.294;18.644;2024-02-04T11:35:20;10.40;99.90
18648;DHT22;9453;50.294;18.644;2024-02-04T11:37:48;10.30;99.90
18648;DHT22;9453;50.294;18.644;2024-02-04T11:40:15;10.20;99.90
18648;DHT22;9453;50.294;18.644;2024-02-04T11:42:44;10.00;99.90
18648;DHT22;9453;50.294;18.644;2024-02-04T11:45:13;9.80;99.90
18648;DHT22;9453;50.294;18.644;2024-02-04T11:47:40;9.70;99.90
18648;DHT22;9453;50.294;18.644;2024-02-04T11:50:08;9.70;99.90
18648;DHT22;9453;50.294;18.644;2024-02-04T11:52:37;9.80;99.90
18648;DHT22;9453;50.294;18.644;2024-02-04T11:55:05;10.00;99.90
18648;DHT22;9453;50.294;18.644;2024-02-04T11:57:32;10.10;99.90
18648;DHT22;9453;50.294;18.644;2024-02-04T12:00:00;10.20;99.90
18648;DHT22;9453;50.294;18.644;2024-02-04T12:02:28;10.20;99.90
18648;DHT22;9453;50.294;18.644;2024-02-04T12:04:55;10.10;99.90
18648;DHT22;9453;50.294;18.644;2024-02-04T12:07:22;10.00;99.90
18648;DHT22;9453;50.294;18.644;2024-02-04T12:09:51;9.80;99.90
18648;DHT22;9453;50.294;18.644;2024-02-04T12:12:18;9.70;99.90
18648;DHT22;9453;50.294;18.644;2024-02-04T12:14:46;9.60;99.90
18648;DHT22;9453;50.294;18.644;2024-02-04T12:17:13;9.30;99.90
18648;DHT22;9453;50.294;18.644;2024-02-04T12:19:40;9.10;99.90
18648;DHT22;9453;50.294;18.644;2024-02-04T12:22:07;9.00;99.90
18648;DHT22;9453;50.294;18.644;2024-02-04T12:24:35;9.10;99.90
18648;DHT22;9453;50.294;18.644;2024-02-04T12:27:04;9.00;99.90
18648;DHT22;9453;50.294;18.644;2024-02-04T12:29:33;8.90;99.90
18648;DHT22;9453;50.294;18.644;2024-02-04T12:32:00;9.00;99.90
18648;DHT22;9453;50.294;18.644;2024-02-04T12:34:28;9.10;99.90
18648;DHT22;9453;50.294;18.644;2024-02-04T12:36:59;9.10;99.90
18648;DHT22;9453;50.294;18.644;2024-02-04T12:39:26;9.00;99.90
18648;DHT22;9453;50.294;18.644;2024-02-04T12:41:53;8.90;99.90
18648;DHT22;9453;50.294;18.644;2024-02-04T12:44:22;8.80;99.90
18648;DHT22;9453;50.294;18.644;2024-02-04T12:46:50;8.80;99.90
18648;DHT22;9453;50.294;18.644;2024-02-04T12:49:20;8.80;99.90
18648;DHT22;9453;50.294;18.644;2024-02-04T12:51:47;8.80;99.90
18648;DHT22;9453;50.294;18.644;2024-02-04T12:54:14;8.80;99.90
18648;DHT22;9453;50.294;18.644;2024-02-04T12:56:45;8.70;99.90
18648;DHT22;9453;50.294;18.644;2024-02-04T12:59:11;8.70;99.90
18648;DHT22;9453;50.294;18.644;2024-02-04T13:01:40;8.70;99.90
18648;DHT22;9453;50.294;18.644;2024-02-04T13:04:07;8.70;99.90
18648;DHT22;9453;50.294;18.644;2024-02-04T13:06:38;8.70;99.90
18648;DHT22;9453;50.294;18.644;2024-02-04T13:09:05;8.80;99.90
18648;DHT22;9453;50.294;18.644;2024-02-04T13:11:34;8.90;99.90
18648;DHT22;9453;50.294;18.644;2024-02-04T13:14:01;8.90;99.90
18648;DHT22;9453;50.294;18.644;2024-02-04T13:16:28;8.90;99.90
18648;DHT22;9453;50.294;18.644;2024-02-04T13:18:57;8.80;99.90
18648;DHT22;9453;50.294;18.644;2024-02-04T13:21:24;8.80;99.90
18648;DHT22;9453;50.294;18.644;2024-02-04T13:23:51;8.70;99.90
18648;DHT22;9453;50.294;18.644;2024-02-04T13:26:18;8.70;99.90
18648;DHT22;9453;50.294;18.644;2024-02-04T13:28:45;8.60;99.90
18648;DHT22;9453;50.294;18.644;2024-02-04T13:31:13;8.50;99.90
18648;DHT22;9453;50.294;18.644;2024-02-04T13:33:40;8.40;99.90
18648;DHT22;9453;50.294;18.644;2024-02-04T13:36:08;8.40;99.90
18648;DHT22;9453;50.294;18.644;2024-02-04T13:38:36;8.50;99.90
18648;DHT22;9453;50.294;18.644;2024-02-04T13:41:03;8.50;99.90
18648;DHT22;9453;50.294;18.644;2024-02-04T13:43:32;8.50;99.90
18648;DHT22;9453;50.294;18.644;2024-02-04T13:45:59;8.50;99.90
18648;DHT22;9453;50.294;18.644;2024-02-04T13:48:27;8.50;99.90
18648;DHT22;9453;50.294;18.644;2024-02-04T13:50:54;8.50;99.90
18648;DHT22;9453;50.294;18.644;2024-02-04T13:53:22;8.50;99.90
18648;DHT22;9453;50.294;18.644;2024-02-04T13:55:49;8.50;99.90
18648;DHT22;9453;50.294;18.644;2024-02-04T13:58:16;8.50;99.90
18648;DHT22;9453;50.294;18.644;2024-02-04T14:00:44;8.50;99.90
18648;DHT22;9453;50.294;18.644;2024-02-04T14:03:11;8.60;99.90
18648;DHT22;9453;50.294;18.644;2024-02-04T14:05:39;8.60;99.90
18648;DHT22;9453;50.294;18.644;2024-02-04T14:08:06;8.60;99.90
18648;DHT22;9453;50.294;18.644;2024-02-04T14:10:35;8.60;99.90
18648;DHT22;9453;50.294;18.644;2024-02-04T14:13:03;8.50;99.90
18648;DHT22;9453;50.294;18.644;2024-02-04T14:15:30;8.60;99.90
18648;DHT22;9453;50.294;18.644;2024-02-04T14:17:57;8.50;99.90
18648;DHT22;9453;50.294;18.644;2024-02-04T14:20:24;8.50;99.90
18648;DHT22;9453;50.294;18.644;2024-02-04T14:22:52;8.50;99.90
18648;DHT22;9453;50.294;18.644;2024-02-04T14:25:19;8.50;99.90
18648;DHT22;9453;50.294;18.644;2024-02-04T14:27:47;8.50;99.90
18648;DHT22;9453;50.294;18.644;2024-02-04T14:30:14;8.50;99.90
18648;DHT22;9453;50.294;18.644;2024-02-04T14:32:41;8.50;99.90
18648;DHT22;9453;50.294;18.644;2024-02-04T14:35:09;8.60;99.90
18648;DHT22;9453;50.294;18.644;2024-02-04T14:37:36;8.50;99.90
18648;DHT22;9453;50.294;18.644;2024-02-04T14:40:06;8.50;99.90
18648;DHT22;9453;50.294;18.644;2024-02-04T14:42:33;8.50;99.90
18648;DHT22;9453;50.294;18.644;2024-02-04T14:45:02;8.50;99.90
18648;DHT22;9453;50.294;18.644;2024-02-04T14:47:29;8.50;99.90
18648;DHT22;9453;50.294;18.644;2024-02-04T14:49:55;8.60;99.90
18648;DHT22;9453;50.294;18.644;2024-02-04T14:52:22;8.60;99.90
18648;DHT22;9453;50.294;18.644;2024-02-04T14:54:49;8.60;99.90
18648;DHT22;9453;50.294;18.644;2024-02-04T14:57:16;8.60;99.90
18648;DHT22;9453;50.294;18.644;2024-02-04T14:59:43;8.60;99.90
18648;DHT22;9453;50.294;18.644;2024-02-04T15:02:12;8.60;99.90
18648;DHT22;9453;50.294;18.644;2024-02-04T15:04:39;8.50;99.90
18648;DHT22;9453;50.294;18.644;2024-02-04T15:07:06;8.50;99.90
18648;DHT22;9453;50.294;18.644;2024-02-04T15:09:34;8.50;99.90
18648;DHT22;9453;50.294;18.644;2024-02-04T15:12:01;8.50;99.90
18648;DHT22;9453;50.294;18.644;2024-02-04T15:14:29;8.50;99.90
18648;DHT22;9453;50.294;18.644;2024-02-04T15:16:57;8.40;99.90
18648;DHT22;9453;50.294;18.644;2024-02-04T15:19:28;8.40;99.90
18648;DHT22;9453;50.294;18.644;2024-02-04T15:21:56;8.30;99.90
18648;DHT22;9453;50.294;18.644;2024-02-04T15:24:23;8.30;99.90
18648;DHT22;9453;50.294;18.644;2024-02-04T15:26:52;8.30;99.90
18648;DHT22;9453;50.294;18.644;2024-02-04T15:29:20;8.10;99.90
18648;DHT22;9453;50.294;18.644;2024-02-04T15:31:48;8.10;99.90
18648;DHT22;9453;50.294;18.644;2024-02-04T15:34:16;8.00;99.90
18648;DHT22;9453;50.294;18.644;2024-02-04T15:36:45;7.90;99.90
18648;DHT22;9453;50.294;18.644;2024-02-04T15:39:12;7.90;99.90
18648;DHT22;9453;50.294;18.644;2024-02-04T15:41:40;7.90;99.90
18648;DHT22;9453;50.294;18.644;2024-02-04T15:44:07;7.80;99.90
18648;DHT22;9453;50.294;18.644;2024-02-04T15:46:35;7.80;99.90
18648;DHT22;9453;50.294;18.644;2024-02-04T15:49:02;7.90;99.90
18648;DHT22;9453;50.294;18.644;2024-02-04T15:51:36;7.90;99.90
18648;DHT22;9453;50.294;18.644;2024-02-04T15:54:05;7.90;99.90
18648;DHT22;9453;50.294;18.644;2024-02-04T15:56:34;7.90;99.90
18648;DHT22;9453;50.294;18.644;2024-02-04T15:59:07;7.90;99.90
18648;DHT22;9453;50.294;18.644;2024-02-04T16:01:36;7.90;99.90
18648;DHT22;9453;50.294;18.644;2024-02-04T16:04:06;7.90;99.90
18648;DHT22;9453;50.294;18.644;2024-02-04T16:06:33;8.00;99.90
18648;DHT22;9453;50.294;18.644;2024-02-04T16:09:01;8.00;99.90
18648;DHT22;9453;50.294;18.644;2024-02-04T16:11:40;8.00;99.90
18648;DHT22;9453;50.294;18.644;2024-02-04T16:14:09;8.00;99.90
18648;DHT22;9453;50.294;18.644;2024-02-04T16:16:40;7.90;99.90
18648;DHT22;9453;50.294;18.644;2024-02-04T16:19:12;7.90;99.90
18648;DHT22;9453;50.294;18.644;2024-02-04T16:21:39;7.80;99.90
18648;DHT22;9453;50.294;18.644;2024-02-04T16:24:06;7.70;99.90
18648;DHT22;9453;50.294;18.644;2024-02-04T16:26:34;7.70;99.90
18648;DHT22;9453;50.294;18.644;2024-02-04T16:29:01;7.70;99.90
18648;DHT22;9453;50.294;18.644;2024-02-04T16:31:28;7.80;99.90
18648;DHT22;9453;50.294;18.644;2024-02-04T16:33:55;7.70;99.90
18648;DHT22;9453;50.294;18.644;2024-02-04T16:36:24;7.70;99.90
18648;DHT22;9453;50.294;18.644;2024-02-04T16:38:51;7.70;99.90
18648;DHT22;9453;50.294;18.644;2024-02-04T16:41:18;7.80;99.90
18648;DHT22;9453;50.294;18.644;2024-02-04T16:43:46;7.80;99.90
18648;DHT22;9453;50.294;18.644;2024-02-04T16:46:13;7.80;99.90
18648;DHT22;9453;50.294;18.644;2024-02-04T16:48:41;7.90;99.90
18648;DHT22;9453;50.294;18.644;2024-02-04T16:51:08;7.90;99.90
18648;DHT22;9453;50.294;18.644;2024-02-04T16:53:36;7.80;99.90
18648;DHT22;9453;50.294;18.644;2024-02-04T16:56:04;7.90;99.90
18648;DHT22;9453;50.294;18.644;2024-02-04T16:58:31;7.90;99.90
18648;DHT22;9453;50.294;18.644;2024-02-04T17:00:59;7.90;99.90
18648;DHT22;9453;50.294;18.644;2024-02-04T17:03:27;7.90;99.90
18648;DHT22;9453;50.294;18.644;2024-02-04T17:05:55;7.90;99.90
18648;DHT22;9453;50.294;18.644;2024-02-04T17:08:24;7.90;99.90
18648;DHT22;9453;50.294;18.644;2024-02-04T17:10:52;7.80;99.90
18648;DHT22;9453;50.294;18.644;2024-02-04T17:13:21;7.80;99.90
18648;DHT22;9453;50.294;18.644;2024-02-04T17:15:50;7.80;99.90
18648;DHT22;9453;50.294;18.644;2024-02-04T17:18:27;7.80;99.90
18648;DHT22;9453;50.294;18.644;2024-02-04T17:20:58;7.80;99.90
18648;DHT22;9453;50.294;18.644;2024-02-04T17:23:26;7.80;99.90
18648;DHT22;9453;50.294;18.644;2024-02-04T17:25:58;7.70;99.90
18648;DHT22;9453;50.294;18.644;2024-02-04T17:28:26;7.70;99.90
18648;DHT22;9453;50.294;18.644;2024-02-04T17:30:53;7.60;99.90
18648;DHT22;9453;50.294;18.644;2024-02-04T17:33:22;7.60;99.90
18648;DHT22;9453;50.294;18.644;2024-02-04T17:35:49;7.60;99.90
18648;DHT22;9453;50.294;18.644;2024-02-04T17:38:17;7.60;99.90
18648;DHT22;9453;50.294;18.644;2024-02-04T17:40:44;7.60;99.90
18648;DHT22;9453;50.294;18.644;2024-02-04T17:43:11;7.60;99.90
18648;DHT22;9453;50.294;18.644;2024-02-04T17:45:38;7.60;99.90
18648;DHT22;9453;50.294;18.644;2024-02-04T17:48:06;7.70;99.90
18648;DHT22;9453;50.294;18.644;2024-02-04T17:50:35;7.70;99.90
18648;DHT22;9453;50.294;18.644;2024-02-04T17:53:02;7.60;99.90
18648;DHT22;9453;50.294;18.644;2024-02-04T17:55:32;7.70;99.90
18648;DHT22;9453;50.294;18.644;2024-02-04T17:58:00;7.60;99.90
18648;DHT22;9453;50.294;18.644;2024-02-04T18:00:28;7.70;99.90
18648;DHT22;9453;50.294;18.644;2024-02-04T18:02:55;7.60;99.90
18648;DHT22;9453;50.294;18.644;2024-02-04T18:05:23;7.60;99.90
18648;DHT22;9453;50.294;18.644;2024-02-04T18:07:51;7.50;99.90
18648;DHT22;9453;50.294;18.644;2024-02-04T18:10:18;7.40;99.90
18648;DHT22;9453;50.294;18.644;2024-02-04T18:12:47;7.40;99.90
18648;DHT22;9453;50.294;18.644;2024-02-04T18:15:14;7.30;99.90
18648;DHT22;9453;50.294;18.644;2024-02-04T18:17:42;7.30;99.90
18648;DHT22;9453;50.294;18.644;2024-02-04T18:20:10;7.20;99.90
18648;DHT22;9453;50.294;18.644;2024-02-04T18:22:38;7.10;99.90
18648;DHT22;9453;50.294;18.644;2024-02-04T18:25:06;7.00;99.90
18648;DHT22;9453;50.294;18.644;2024-02-04T18:27:36;7.00;99.90
18648;DHT22;9453;50.294;18.644;2024-02-04T18:30:07;7.00;99.90
18648;DHT22;9453;50.294;18.644;2024-02-04T18:32:34;7.10;99.90
18648;DHT22;9453;50.294;18.644;2024-02-04T18:35:01;7.10;99.90
18648;DHT22;9453;50.294;18.644;2024-02-04T18:37:28;7.30;99.90
18648;DHT22;9453;50.294;18.644;2024-02-04T18:39:55;7.40;99.90
18648;DHT22;9453;50.294;18.644;2024-02-04T18:42:26;7.40;99.90
18648;DHT22;9453;50.294;18.644;2024-02-04T18:44:53;7.50;99.90
18648;DHT22;9453;50.294;18.644;2024-02-04T18:47:21;7.60;99.90
18648;DHT22;9453;50.294;18.644;2024-02-04T18:49:48;7.70;99.90
18648;DHT22;9453;50.294;18.644;2024-02-04T18:52:15;7.70;99.90
18648;DHT22;9453;50.294;18.644;2024-02-04T18:54:42;7.70;99.90
18648;DHT22;9453;50.294;18.644;2024-02-04T18:57:09;7.70;99.90
18648;DHT22;9453;50.294;18.644;2024-02-04T18:59:37;7.70;99.90
18648;DHT22;9453;50.294;18.644;2024-02-04T19:02:04;7.70;99.90
18648;DHT22;9453;50.294;18.644;2024-02-04T19:04:32;7.70;99.90
18648;DHT22;9453;50.294;18.644;2024-02-04T19:07:00;7.70;99.90
18648;DHT22;9453;50.294;18.644;2024-02-04T19:09:27;7.80;99.90
18648;DHT22;9453;50.294;18.644;2024-02-04T19:11:54;7.80;99.90
18648;DHT22;9453;50.294;18.644;2024-02-04T19:14:22;7.80;99.90
18648;DHT22;9453;50.294;18.644;2024-02-04T19:16:50;7.90;99.90
18648;DHT22;9453;50.294;18.644;2024-02-04T19:19:18;7.90;99.90
18648;DHT22;9453;50.294;18.644;2024-02-04T19:21:46;7.90;99.90
18648;DHT22;9453;50.294;18.644;2024-02-04T19:24:13;7.90;99.90
18648;DHT22;9453;50.294;18.644;2024-02-04T19:26:41;7.90;99.90
18648;DHT22;9453;50.294;18.644;2024-02-04T19:29:08;7.90;99.90
18648;DHT22;9453;50.294;18.644;2024-02-04T19:31:35;7.90;99.90
18648;DHT22;9453;50.294;18.644;2024-02-04T19:34:05;7.90;99.90
18648;DHT22;9453;50.294;18.644;2024-02-04T19:36:33;7.90;99.90
18648;DHT22;9453;50.294;18.644;2024-02-04T19:39:00;7.90;99.90
18648;DHT22;9453;50.294;18.644;2024-02-04T19:41:27;8.00;99.90
18648;DHT22;9453;50.294;18.644;2024-02-04T19:43:54;8.00;99.90
18648;DHT22;9453;50.294;18.644;2024-02-04T19:46:21;8.00;99.90
18648;DHT22;9453;50.294;18.644;2024-02-04T19:48:48;8.00;99.90
18648;DHT22;9453;50.294;18.644;2024-02-04T19:51:16;8.00;99.90
18648;DHT22;9453;50.294;18.644;2024-02-04T19:53:44;8.00;99.90
18648;DHT22;9453;50.294;18.644;2024-02-04T19:56:11;8.00;99.90
18648;DHT22;9453;50.294;18.644;2024-02-04T19:58:38;8.00;99.90
18648;DHT22;9453;50.294;18.644;2024-02-04T20:01:05;8.00;99.90
18648;DHT22;9453;50.294;18.644;2024-02-04T20:03:32;8.00;99.90
18648;DHT22;9453;50.294;18.644;2024-02-04T20:06:00;8.10;99.90
18648;DHT22;9453;50.294;18.644;2024-02-04T20:08:29;8.10;99.90
18648;DHT22;9453;50.294;18.644;2024-02-04T20:10:56;8.10;99.90
18648;DHT22;9453;50.294;18.644;2024-02-04T20:13:23;8.10;99.90
18648;DHT22;9453;50.294;18.644;2024-02-04T20:15:52;8.20;99.90
18648;DHT22;9453;50.294;18.644;2024-02-04T20:18:19;8.20;99.90
18648;DHT22;9453;50.294;18.644;2024-02-04T20:20:49;8.20;99.90
18648;DHT22;9453;50.294;18.644;2024-02-04T20:23:17;8.20;99.90
18648;DHT22;9453;50.294;18.644;2024-02-04T20:25:46;8.20;99.90
18648;DHT22;9453;50.294;18.644;2024-02-04T20:28:14;8.20;99.90
18648;DHT22;9453;50.294;18.644;2024-02-04T20:30:40;8.20;99.90
18648;DHT22;9453;50.294;18.644;2024-02-04T20:33:07;8.10;99.90
18648;DHT22;9453;50.294;18.644;2024-02-04T20:35:34;8.10;99.90
18648;DHT22;9453;50.294;18.644;2024-02-04T20:38:01;8.10;99.90
18648;DHT22;9453;50.294;18.644;2024-02-04T20:40:29;8.10;99.90
18648;DHT22;9453;50.294;18.644;2024-02-04T20:42:57;8.00;99.90
18648;DHT22;9453;50.294;18.644;2024-02-04T20:45:24;7.90;99.90
18648;DHT22;9453;50.294;18.644;2024-02-04T20:47:52;7.90;99.90
18648;DHT22;9453;50.294;18.644;2024-02-04T20:50:20;7.80;99.90
18648;DHT22;9453;50.294;18.644;2024-02-04T20:52:46;7.80;99.90